sensor_id;sensor_type;location;lat;lon;timestamp;pressure;altitude;pressure_sealevel;temperature;humidity
19672;BME280;9983;51.114;13.788;2023-03-26T00:02:34;98302.25;;;9.74;100.00
19672;BME280;9983;51.114;13.788;2023-03-26T00:07:39;98298.19;;;9.44;100.00
19672;BME280;9983;51.114;13.788;2023-03-26T00:12:39;98299.44;;;8.92;100.00
19672;BME280;9983;51.114;13.788;2023-03-26T00:17:39;98320.25;;;9.25;100.00
19672;BME280;9983;51.114;13.788;2023-03-26T00:22:40;98309.13;;;8.93;100.00
19672;BME280;9983;51.114;13.788;2023-03-26T00:27:40;98326.28;;;9.05;100.00
19672;BME280;9983;51.114;13.788;2023-03-26T00:32:41;98314.69;;;8.98;100.00
19672;BME280;9983;51.114;13.788;2023-03-26T00:37:42;98326.59;;;9.45;100.00
19672;BME280;9983;51.114;13.788;2023-03-26T00:42:44;98336.81;;;9.35;100.00
19672;BME280;9983;51.114;13.788;2023-03-26T00:47:45;98326.06;;;9.28;100.00
19672;BME280;9983;51.114;13.788;2023-03-26T00:52:45;98327.66;;;9.23;100.00
19672;BME280;9983;51.114;13.788;2023-03-26T00:57:45;98317.06;;;9.36;100.00
19672;BME280;9983;51.114;13.788;2023-03-26T01:02:45;98324.06;;;9.37;100.00
19672;BME280;9983;51.114;13.788;2023-03-26T01:07:46;98308.97;;;9.57;100.00
19672;BME280;9983;51.114;13.788;2023-03-26T01:12:46;98307.28;;;9.90;98.96
19672;BME280;9983;51.114;13.788;2023-03-26T01:17:47;98309.09;;;9.77;99.96
19672;BME280;9983;51.114;13.788;2023-03-26T01:22:54;98327.00;;;9.83;100.00
19672;BME280;9983;51.114;13.788;2023-03-26T01:27:57;98323.00;;;9.03;100.00
19672;BME280;9983;51.114;13.788;2023-03-26T01:49:05;98317.13;;;8.93;100.00
19672;BME280;9983;51.114;13.788;2023-03-26T01:54:18;98313.44;;;8.94;100.00
19672;BME280;9983;51.114;13.788;2023-03-26T01:59:28;98311.59;;;8.73;100.00
19672;BME280;9983;51.114;13.788;2023-03-26T02:04:40;98309.78;;;8.53;100.00
19672;BME280;9983;51.114;13.788;2023-03-26T02:09:46;98306.81;;;8.48;100.00
19672;BME280;9983;51.114;13.788;2023-03-26T02:14:50;98311.50;;;8.60;100.00
19672;BME280;9983;51.114;13.788;2023-03-26T02:19:50;98313.97;;;8.62;100.00
19672;BME280;9983;51.114;13.788;2023-03-26T02:24:50;98308.03;;;8.66;100.00
19672;BME280;9983;51.114;13.788;2023-03-26T02:29:51;98314.78;;;8.62;100.00
19672;BME280;9983;51.114;13.788;2023-03-26T02:34:51;98311.97;;;8.70;100.00
19672;BME280;9983;51.114;13.788;2023-03-26T02:39:51;98304.28;;;8.82;100.00
19672;BME280;9983;51.114;13.788;2023-03-26T02:44:51;98310.72;;;8.30;100.00
19672;BME280;9983;51.114;13.788;2023-03-26T02:49:52;98324.47;;;8.13;100.00
19672;BME280;9983;51.114;13.788;2023-03-26T02:54:52;98313.75;;;8.42;100.00
19672;BME280;9983;51.114;13.788;2023-03-26T02:59:53;98339.19;;;8.38;100.00
19672;BME280;9983;51.114;13.788;2023-03-26T03:04:53;98312.56;;;8.45;100.00
19672;BME280;9983;51.114;13.788;2023-03-26T03:10:00;98313.91;;;9.04;100.00
19672;BME280;9983;51.114;13.788;2023-03-26T03:15:01;98307.97;;;8.81;100.00
19672;BME280;9983;51.114;13.788;2023-03-26T03:20:02;98308.47;;;8.91;100.00
19672;BME280;9983;51.114;13.788;2023-03-26T03:25:04;98314.19;;;8.46;100.00
19672;BME280;9983;51.114;13.788;2023-03-26T03:30:09;98306.03;;;8.96;100.00
19672;BME280;9983;51.114;13.788;2023-03-26T03:35:10;98300.09;;;8.73;100.00
19672;BME280;9983;51.114;13.788;2023-03-26T03:40:11;98306.81;;;8.90;100.00
19672;BME280;9983;51.114;13.788;2023-03-26T03:45:12;98311.19;;;8.70;100.00
19672;BME280;9983;51.114;13.788;2023-03-26T03:50:12;98304.44;;;8.53;100.00
19672;BME280;9983;51.114;13.788;2023-03-26T03:55:12;98305.81;;;8.91;100.00
19672;BME280;9983;51.114;13.788;2023-03-26T04:00:13;98305.16;;;8.89;100.00
19672;BME280;9983;51.114;13.788;2023-03-26T04:05:14;98300.34;;;8.78;100.00
19672;BME280;9983;51.114;13.788;2023-03-26T04:10:14;98302.50;;;8.68;100.00
19672;BME280;9983;51.114;13.788;2023-03-26T04:15:15;98308.50;;;8.70;100.00
19672;BME280;9983;51.114;13.788;2023-03-26T04:20:15;98305.00;;;9.19;100.00
19672;BME280;9983;51.114;13.788;2023-03-26T04:25:15;98286.81;;;9.07;100.00
19672;BME280;9983;51.114;13.788;2023-03-26T04:30:17;98304.03;;;8.56;100.00
19672;BME280;9983;51.114;13.788;2023-03-26T04:35:19;98299.53;;;8.56;100.00
19672;BME280;9983;51.114;13.788;2023-03-26T04:40:20;98293.59;;;8.82;100.00
19672;BME280;9983;51.114;13.788;2023-03-26T04:45:21;98289.44;;;9.29;100.00
19672;BME280;9983;51.114;13.788;2023-03-26T04:50:21;98293.03;;;8.87;100.00
19672;BME280;9983;51.114;13.788;2023-03-26T04:55:26;98292.19;;;8.86;100.00
19672;BME280;9983;51.114;13.788;2023-03-26T05:00:28;98287.69;;;9.14;100.00
19672;BME280;9983;51.114;13.788;2023-03-26T05:05:28;98286.13;;;9.27;100.00
19672;BME280;9983;51.114;13.788;2023-03-26T05:10:28;98291.38;;;9.13;100.00
19672;BME280;9983;51.114;13.788;2023-03-26T05:15:29;98296.53;;;9.43;100.00
19672;BME280;9983;51.114;13.788;2023-03-26T05:20:29;98285.94;;;9.00;100.00
19672;BME280;9983;51.114;13.788;2023-03-26T05:25:30;98299.03;;;9.17;100.00
19672;BME280;9983;51.114;13.788;2023-03-26T05:30:30;98302.09;;;9.82;100.00
19672;BME280;9983;51.114;13.788;2023-03-26T05:35:31;98307.22;;;9.43;100.00
19672;BME280;9983;51.114;13.788;2023-03-26T05:40:31;98301.19;;;9.06;100.00
19672;BME280;9983;51.114;13.788;2023-03-26T05:45:31;98311.63;;;9.92;100.00
19672;BME280;9983;51.114;13.788;2023-03-26T05:50:31;98306.25;;;9.23;100.00
19672;BME280;9983;51.114;13.788;2023-03-26T05:55:32;98310.63;;;9.58;100.00
19672;BME280;9983;51.114;13.788;2023-03-26T06:00:32;98311.72;;;9.36;100.00
19672;BME280;9983;51.114;13.788;2023-03-26T06:05:36;98320.59;;;9.43;100.00
19672;BME280;9983;51.114;13.788;2023-03-26T06:10:37;98314.31;;;9.57;100.00
19672;BME280;9983;51.114;13.788;2023-03-26T06:15:38;98314.69;;;9.54;100.00
19672;BME280;9983;51.114;13.788;2023-03-26T06:20:40;98316.63;;;10.08;100.00
19672;BME280;9983;51.114;13.788;2023-03-26T06:25:40;98315.91;;;9.45;100.00
19672;BME280;9983;51.114;13.788;2023-03-26T06:30:41;98309.75;;;9.51;100.00
19672;BME280;9983;51.114;13.788;2023-03-26T06:35:42;98304.59;;;9.90;100.00
19672;BME280;9983;51.114;13.788;2023-03-26T06:40:43;98300.88;;;9.44;100.00
19672;BME280;9983;51.114;13.788;2023-03-26T06:45:43;98296.28;;;9.72;100.00
19672;BME280;9983;51.114;13.788;2023-03-26T06:50:43;98297.69;;;10.03;100.00
19672;BME280;9983;51.114;13.788;2023-03-26T06:55:44;98306.44;;;10.31;100.00
19672;BME280;9983;51.114;13.788;2023-03-26T07:00:44;98303.41;;;10.00;100.00
19672;BME280;9983;51.114;13.788;2023-03-26T07:05:45;98286.22;;;10.22;100.00
19672;BME280;9983;51.114;13.788;2023-03-26T07:10:46;98292.75;;;10.87;100.00
19672;BME280;9983;51.114;13.788;2023-03-26T07:15:47;98289.16;;;10.40;100.00
19672;BME280;9983;51.114;13.788;2023-03-26T07:20:48;98281.81;;;10.69;100.00
19672;BME280;9983;51.114;13.788;2023-03-26T07:25:49;98288.78;;;10.56;100.00
19672;BME280;9983;51.114;13.788;2023-03-26T07:31:06;98288.75;;;10.43;100.00
19672;BME280;9983;51.114;13.788;2023-03-26T07:36:20;98281.75;;;10.55;100.00
19672;BME280;9983;51.114;13.788;2023-03-26T07:41:42;98286.72;;;10.58;96.89
19672;BME280;9983;51.114;13.788;2023-03-26T07:46:45;98288.00;;;10.89;96.88
19672;BME280;9983;51.114;13.788;2023-03-26T07:51:47;98281.00;;;11.01;90.46
19672;BME280;9983;51.114;13.788;2023-03-26T07:56:54;98272.50;;;11.44;90.51
19672;BME280;9983;51.114;13.788;2023-03-26T08:07:22;98268.59;;;11.20;89.60
19672;BME280;9983;51.114;13.788;2023-03-26T08:12:38;98273.16;;;11.19;89.84
19672;BME280;9983;51.114;13.788;2023-03-26T08:17:47;98288.81;;;11.09;89.30
19672;BME280;9983;51.114;13.788;2023-03-26T08:22:55;98259.53;;;10.81;91.03
19672;BME280;9983;51.114;13.788;2023-03-26T08:28:15;98270.25;;;10.61;91.38
19672;BME280;9983;51.114;13.788;2023-03-26T08:33:20;98275.63;;;10.75;91.48
19672;BME280;9983;51.114;13.788;2023-03-26T08:38:21;98278.50;;;10.67;91.22
19672;BME280;9983;51.114;13.788;2023-03-26T08:49:01;98269.44;;;11.07;87.25
19672;BME280;9983;51.114;13.788;2023-03-26T08:59:38;98258.44;;;11.48;84.73
19672;BME280;9983;51.114;13.788;2023-03-26T09:05:13;98253.34;;;10.74;85.35
19672;BME280;9983;51.114;13.788;2023-03-26T09:26:45;98240.81;;;11.85;80.91
19672;BME280;9983;51.114;13.788;2023-03-26T09:32:07;98247.06;;;11.53;82.89
19672;BME280;9983;51.114;13.788;2023-03-26T09:37:50;98245.88;;;11.22;83.35
19672;BME280;9983;51.114;13.788;2023-03-26T09:43:28;98234.47;;;11.60;80.31
19672;BME280;9983;51.114;13.788;2023-03-26T09:53:59;98213.66;;;12.38;77.13
19672;BME280;9983;51.114;13.788;2023-03-26T09:59:17;98209.19;;;12.81;71.64
19672;BME280;9983;51.114;13.788;2023-03-26T10:15:19;98198.19;;;13.99;64.75
19672;BME280;9983;51.114;13.788;2023-03-26T10:20:36;98190.94;;;13.70;65.87
19672;BME280;9983;51.114;13.788;2023-03-26T10:26:22;98177.75;;;13.80;65.39
19672;BME280;9983;51.114;13.788;2023-03-26T10:37:03;98154.69;;;12.43;65.62
19672;BME280;9983;51.114;13.788;2023-03-26T10:52:41;98127.81;;;14.07;58.17
19672;BME280;9983;51.114;13.788;2023-03-26T10:57:51;98113.22;;;13.85;57.78
19672;BME280;9983;51.114;13.788;2023-03-26T11:03:10;98110.66;;;14.31;54.50
19672;BME280;9983;51.114;13.788;2023-03-26T11:08:24;98119.28;;;13.50;51.84
19672;BME280;9983;51.114;13.788;2023-03-26T11:18:52;98092.78;;;14.49;49.33
19672;BME280;9983;51.114;13.788;2023-03-26T11:34:20;98079.97;;;13.31;52.12
19672;BME280;9983;51.114;13.788;2023-03-26T11:39:25;98073.91;;;14.49;51.27
19672;BME280;9983;51.114;13.788;2023-03-26T11:44:35;98072.75;;;14.03;51.41
19672;BME280;9983;51.114;13.788;2023-03-26T11:49:37;98067.03;;;16.46;48.87
19672;BME280;9983;51.114;13.788;2023-03-26T11:54:38;98062.28;;;16.53;46.09
19672;BME280;9983;51.114;13.788;2023-03-26T11:59:45;98059.31;;;15.88;47.78
19672;BME280;9983;51.114;13.788;2023-03-26T12:04:50;98071.69;;;14.69;50.29
19672;BME280;9983;51.114;13.788;2023-03-26T12:10:02;98067.94;;;14.70;50.14
19672;BME280;9983;51.114;13.788;2023-03-26T12:15:04;98052.66;;;14.29;50.74
19672;BME280;9983;51.114;13.788;2023-03-26T12:25:28;98050.03;;;15.15;51.21
19672;BME280;9983;51.114;13.788;2023-03-26T12:30:33;98039.50;;;14.32;51.29
19672;BME280;9983;51.114;13.788;2023-03-26T12:35:34;98049.06;;;14.47;52.38
19672;BME280;9983;51.114;13.788;2023-03-26T12:40:34;98041.66;;;14.77;52.08
19672;BME280;9983;51.114;13.788;2023-03-26T12:45:41;98043.47;;;15.51;49.80
19672;BME280;9983;51.114;13.788;2023-03-26T13:02:12;98038.22;;;14.12;51.47
19672;BME280;9983;51.114;13.788;2023-03-26T13:07:15;98027.41;;;15.05;51.28
19672;BME280;9983;51.114;13.788;2023-03-26T13:29:19;98005.78;;;15.16;51.53
19672;BME280;9983;51.114;13.788;2023-03-26T13:39:36;97988.53;;;15.17;50.51
19672;BME280;9983;51.114;13.788;2023-03-26T13:50:26;97981.97;;;15.13;52.57
19672;BME280;9983;51.114;13.788;2023-03-26T13:55:29;97977.63;;;15.12;52.71
19672;BME280;9983;51.114;13.788;2023-03-26T14:00:57;97981.84;;;14.33;53.04
19672;BME280;9983;51.114;13.788;2023-03-26T14:06:07;97970.88;;;14.47;52.14
19672;BME280;9983;51.114;13.788;2023-03-26T14:11:22;97974.81;;;14.32;51.40
19672;BME280;9983;51.114;13.788;2023-03-26T14:16:28;97969.69;;;14.42;50.81
19672;BME280;9983;51.114;13.788;2023-03-26T14:26:55;97975.28;;;14.06;53.91
19672;BME280;9983;51.114;13.788;2023-03-26T14:53:37;98007.94;;;12.17;79.81
19672;BME280;9983;51.114;13.788;2023-03-26T15:04:41;97994.97;;;11.26;97.34
19672;BME280;9983;51.114;13.788;2023-03-26T15:27:00;97991.50;;;11.51;93.72
19672;BME280;9983;51.114;13.788;2023-03-26T15:43:16;97990.81;;;10.02;97.43
19672;BME280;9983;51.114;13.788;2023-03-26T15:48:35;97994.91;;;10.24;98.45
19672;BME280;9983;51.114;13.788;2023-03-26T15:54:08;97978.22;;;10.93;94.42
19672;BME280;9983;51.114;13.788;2023-03-26T16:04:49;97986.22;;;10.48;100.00
19672;BME280;9983;51.114;13.788;2023-03-26T16:20:32;97979.09;;;10.80;100.00
19672;BME280;9983;51.114;13.788;2023-03-26T16:25:38;97987.16;;;10.74;100.00
19672;BME280;9983;51.114;13.788;2023-03-26T16:41:19;97989.31;;;10.45;100.00
19672;BME280;9983;51.114;13.788;2023-03-26T16:46:35;97999.41;;;10.50;100.00
19672;BME280;9983;51.114;13.788;2023-03-26T16:57:35;97994.78;;;10.77;100.00
19672;BME280;9983;51.114;13.788;2023-03-26T17:07:47;97994.88;;;10.50;100.00
19672;BME280;9983;51.114;13.788;2023-03-26T17:12:59;97996.84;;;10.75;100.00
19672;BME280;9983;51.114;13.788;2023-03-26T17:23:28;97996.91;;;10.61;100.00
19672;BME280;9983;51.114;13.788;2023-03-26T17:28:53;98003.94;;;10.49;100.00
19672;BME280;9983;51.114;13.788;2023-03-26T17:34:32;98003.13;;;10.42;100.00
19672;BME280;9983;51.114;13.788;2023-03-26T17:44:43;98014.28;;;9.93;100.00
19672;BME280;9983;51.114;13.788;2023-03-26T17:49:46;98007.69;;;9.69;100.00
19672;BME280;9983;51.114;13.788;2023-03-26T17:54:50;98011.59;;;9.80;100.00
19672;BME280;9983;51.114;13.788;2023-03-26T17:59:58;98019.59;;;10.13;100.00
19672;BME280;9983;51.114;13.788;2023-03-26T18:05:00;98016.75;;;9.95;100.00
19672;BME280;9983;51.114;13.788;2023-03-26T18:15:48;98022.94;;;9.95;100.00
19672;BME280;9983;51.114;13.788;2023-03-26T18:20:52;98022.09;;;10.34;100.00
19672;BME280;9983;51.114;13.788;2023-03-26T18:26:07;98028.69;;;10.12;100.00
19672;BME280;9983;51.114;13.788;2023-03-26T18:31:24;98026.22;;;9.90;100.00
19672;BME280;9983;51.114;13.788;2023-03-26T18:36:26;98022.13;;;9.95;100.00
19672;BME280;9983;51.114;13.788;2023-03-26T18:41:32;98024.16;;;9.93;100.00
19672;BME280;9983;51.114;13.788;2023-03-26T18:46:33;98021.28;;;10.27;100.00
19672;BME280;9983;51.114;13.788;2023-03-26T18:51:35;98018.78;;;9.53;100.00
19672;BME280;9983;51.114;13.788;2023-03-26T18:56:37;98024.97;;;9.60;100.00
19672;BME280;9983;51.114;13.788;2023-03-26T19:01:40;98017.53;;;9.49;100.00
19672;BME280;9983;51.114;13.788;2023-03-26T19:06:41;98015.44;;;9.38;100.00
19672;BME280;9983;51.114;13.788;2023-03-26T19:11:42;98001.94;;;9.85;100.00
19672;BME280;9983;51.114;13.788;2023-03-26T19:16:48;97995.72;;;9.72;100.00
19672;BME280;9983;51.114;13.788;2023-03-26T19:21:49;98000.63;;;9.29;100.00
19672;BME280;9983;51.114;13.788;2023-03-26T19:26:50;97994.09;;;10.04;100.00
19672;BME280;9983;51.114;13.788;2023-03-26T19:31:51;97988.31;;;10.33;100.00
19672;BME280;9983;51.114;13.788;2023-03-26T19:36:58;97989.53;;;10.44;100.00
19672;BME280;9983;51.114;13.788;2023-03-26T19:42:01;97980.22;;;10.46;100.00
19672;BME280;9983;51.114;13.788;2023-03-26T19:47:05;97973.47;;;10.37;100.00
19672;BME280;9983;51.114;13.788;2023-03-26T19:52:13;97968.06;;;10.50;100.00
19672;BME280;9983;51.114;13.788;2023-03-26T19:57:14;97958.22;;;10.44;100.00
19672;BME280;9983;51.114;13.788;2023-03-26T20:02:14;97954.50;;;10.45;100.00
19672;BME280;9983;51.114;13.788;2023-03-26T20:07:18;97952.09;;;10.17;100.00
19672;BME280;9983;51.114;13.788;2023-03-26T20:12:19;97957.81;;;10.34;100.00
19672;BME280;9983;51.114;13.788;2023-03-26T20:17:19;97936.78;;;10.44;100.00
19672;BME280;9983;51.114;13.788;2023-03-26T20:22:21;97940.03;;;10.46;100.00
19672;BME280;9983;51.114;13.788;2023-03-26T20:27:22;97937.19;;;10.41;100.00
19672;BME280;9983;51.114;13.788;2023-03-26T20:32:22;97922.38;;;10.32;100.00
19672;BME280;9983;51.114;13.788;2023-03-26T20:37:24;97922.00;;;10.09;100.00
19672;BME280;9983;51.114;13.788;2023-03-26T20:42:24;97918.34;;;9.83;100.00
19672;BME280;9983;51.114;13.788;2023-03-26T20:47:25;97920.16;;;10.09;100.00
19672;BME280;9983;51.114;13.788;2023-03-26T20:52:25;97919.75;;;10.19;100.00
19672;BME280;9983;51.114;13.788;2023-03-26T20:57:27;97917.91;;;10.00;100.00
19672;BME280;9983;51.114;13.788;2023-03-26T21:02:27;97920.34;;;10.08;100.00
19672;BME280;9983;51.114;13.788;2023-03-26T21:07:27;97919.94;;;10.11;100.00
19672;BME280;9983;51.114;13.788;2023-03-26T21:12:33;97914.41;;;10.19;100.00
19672;BME280;9983;51.114;13.788;2023-03-26T21:17:40;97921.22;;;9.75;100.00
19672;BME280;9983;51.114;13.788;2023-03-26T21:33:15;97919.19;;;9.77;100.00
19672;BME280;9983;51.114;13.788;2023-03-26T21:38:19;97913.63;;;9.66;100.00
19672;BME280;9983;51.114;13.788;2023-03-26T21:43:24;97924.53;;;9.77;100.00
19672;BME280;9983;51.114;13.788;2023-03-26T21:48:24;97939.78;;;9.70;100.00
19672;BME280;9983;51.114;13.788;2023-03-26T21:53:25;97932.72;;;9.03;100.00
19672;BME280;9983;51.114;13.788;2023-03-26T22:03:51;97950.22;;;8.52;100.00
19672;BME280;9983;51.114;13.788;2023-03-26T22:08:53;97960.69;;;9.21;100.00
19672;BME280;9983;51.114;13.788;2023-03-26T22:13:54;97963.59;;;9.39;100.00
19672;BME280;9983;51.114;13.788;2023-03-26T22:18:55;97971.38;;;9.21;100.00
19672;BME280;9983;51.114;13.788;2023-03-26T22:23:56;97965.19;;;9.00;100.00
19672;BME280;9983;51.114;13.788;2023-03-26T22:28:56;97966.91;;;9.41;100.00
19672;BME280;9983;51.114;13.788;2023-03-26T22:33:56;97974.22;;;9.06;100.00
19672;BME280;9983;51.114;13.788;2023-03-26T22:38:57;97962.19;;;9.49;100.00
19672;BME280;9983;51.114;13.788;2023-03-26T22:43:57;97970.22;;;9.56;100.00
19672;BME280;9983;51.114;13.788;2023-03-26T22:48:59;97960.75;;;9.60;100.00
19672;BME280;9983;51.114;13.788;2023-03-26T22:53:59;97963.22;;;9.81;100.00
19672;BME280;9983;51.114;13.788;2023-03-26T22:59:00;97962.00;;;9.77;100.00
19672;BME280;9983;51.114;13.788;2023-03-26T23:04:00;97966.91;;;9.54;100.00
19672;BME280;9983;51.114;13.788;2023-03-26T23:09:00;97971.41;;;8.60;100.00
19672;BME280;9983;51.114;13.788;2023-03-26T23:14:01;97971.56;;;9.12;100.00
19672;BME280;9983;51.114;13.788;2023-03-26T23:19:01;97966.50;;;9.57;100.00
19672;BME280;9983;51.114;13.788;2023-03-26T23:24:02;97969.41;;;9.62;100.00
19672;BME280;9983;51.114;13.788;2023-03-26T23:29:03;97972.28;;;9.67;100.00
19672;BME280;9983;51.114;13.788;2023-03-26T23:34:04;97979.69;;;9.78;100.00
19672;BME280;9983;51.114;13.788;2023-03-26T23:39:04;97985.44;;;9.88;100.00
19672;BME280;9983;51.114;13.788;2023-03-26T23:44:04;97994.91;;;9.51;100.00
19672;BME280;9983;51.114;13.788;2023-03-26T23:49:04;97990.06;;;9.07;100.00
19672;BME280;9983;51.114;13.788;2023-03-26T23:54:05;97983.38;;;9.64;100.00
19672;BME280;9983;51.114;13.788;2023-03-26T23:59:06;97990.59;;;9.97;100.00
